createdAt,value
2023-08-03T00:01:36.876Z,1.10
2023-08-03T00:04:05.257Z,1.33
2023-08-03T00:06:33.638Z,1.35
2023-08-03T00:09:03.357Z,1.67
2023-08-03T00:11:31.664Z,1.40
2023-08-03T00:13:59.945Z,1.20
2023-08-03T00:16:28.309Z,1.30
2023-08-03T00:18:56.634Z,1.27
2023-08-03T00:21:25.159Z,1.42
2023-08-03T00:23:53.559Z,1.42
2023-08-03T00:26:23.220Z,1.20
2023-08-03T00:28:51.511Z,1.23
2023-08-03T00:31:19.880Z,1.10
2023-08-03T00:33:48.299Z,1.20
2023-08-03T00:36:16.717Z,1.02
2023-08-03T00:38:45.085Z,1.33
2023-08-03T00:41:13.527Z,1.42
2023-08-03T00:43:43.624Z,0.93
2023-08-03T00:46:12.096Z,1.17
2023-08-03T00:48:40.393Z,1.33
2023-08-03T00:51:08.726Z,1.40
2023-08-03T00:53:37.030Z,1.50
2023-08-03T00:56:05.487Z,1.70
2023-08-03T00:58:33.788Z,1.08
2023-08-03T01:01:03.474Z,1.20
2023-08-03T01:03:31.792Z,0.93
2023-08-03T01:06:00.317Z,1.00
2023-08-03T01:08:28.636Z,1.08
2023-08-03T01:10:57.161Z,0.98
2023-08-03T01:13:25.485Z,1.20
2023-08-03T01:15:53.828Z,1.15
2023-08-03T01:18:23.522Z,1.23
2023-08-03T01:20:52.388Z,1.30
2023-08-03T01:23:22.311Z,1.63
2023-08-03T01:25:50.702Z,1.30
2023-08-03T01:28:19.119Z,1.25
2023-08-03T01:30:47.542Z,1.27
2023-08-03T01:33:15.970Z,1.33
2023-08-03T01:35:44.636Z,0.98
2023-08-03T01:38:15.252Z,1.15
2023-08-03T01:40:45.028Z,1.30
2023-08-03T01:43:13.552Z,1.25
2023-08-03T01:45:43.228Z,1.00
2023-08-03T01:48:11.788Z,1.10
2023-08-03T01:50:40.215Z,1.30
2023-08-03T01:53:08.544Z,0.98
2023-08-03T01:55:37.250Z,1.35
2023-08-03T01:58:07.414Z,1.30
2023-08-03T02:00:35.893Z,1.08
2023-08-03T02:03:04.387Z,1.00
2023-08-03T02:05:32.966Z,1.23
2023-08-03T02:08:01.424Z,1.48
2023-08-03T02:10:29.855Z,1.05
2023-08-03T02:12:58.522Z,1.20
2023-08-03T02:15:28.322Z,1.88
2023-08-03T02:17:56.751Z,1.15
2023-08-03T02:20:25.253Z,1.00
2023-08-03T02:22:53.606Z,1.50
2023-08-03T02:25:25.242Z,1.30
2023-08-03T02:27:53.929Z,1.05
2023-08-03T02:30:22.854Z,0.85
2023-08-03T02:32:52.674Z,0.82
2023-08-03T02:35:21.221Z,1.00
2023-08-03T02:37:49.561Z,0.82
2023-08-03T02:40:17.869Z,0.93
2023-08-03T02:42:46.229Z,0.60
2023-08-03T02:45:15.018Z,1.20
2023-08-03T02:47:43.368Z,1.02
2023-08-03T02:50:13.346Z,0.95
2023-08-03T02:52:41.810Z,0.90
2023-08-03T02:55:10.610Z,0.90
2023-08-03T02:57:38.994Z,1.13
2023-08-03T03:00:10.578Z,0.88
2023-08-03T03:02:39.159Z,1.00
2023-08-03T03:05:10.700Z,0.90
2023-08-03T03:07:40.543Z,1.00
2023-08-03T03:10:14.424Z,1.13
2023-08-03T03:12:42.857Z,1.05
2023-08-03T03:15:11.794Z,0.95
2023-08-03T03:17:43.666Z,0.85
2023-08-03T03:20:12.783Z,1.17
2023-08-03T03:22:42.496Z,0.65
2023-08-03T03:25:11.350Z,1.10
2023-08-03T03:27:39.858Z,1.13
2023-08-03T03:30:08.863Z,0.85
2023-08-03T03:32:37.364Z,0.80
2023-08-03T03:35:05.998Z,1.00
2023-08-03T03:37:34.424Z,0.73
2023-08-03T03:40:04.377Z,0.70
2023-08-03T03:42:33.961Z,0.93
2023-08-03T03:45:02.352Z,0.82
2023-08-03T03:47:30.965Z,1.13
2023-08-03T03:49:59.345Z,1.02
2023-08-03T03:52:27.730Z,0.80
2023-08-03T03:54:56.135Z,1.00
2023-08-03T03:57:25.874Z,1.00
2023-08-03T03:59:54.270Z,0.90
2023-08-03T04:02:22.612Z,1.15
2023-08-03T04:04:51.001Z,0.95
2023-08-03T04:07:19.634Z,0.77
2023-08-03T04:09:48.010Z,1.02
2023-08-03T04:12:16.329Z,0.70
2023-08-03T04:14:45.972Z,1.13
2023-08-03T04:17:14.380Z,0.75
2023-08-03T04:19:42.997Z,0.65
2023-08-03T04:22:11.318Z,0.60
2023-08-03T04:24:39.912Z,0.73
2023-08-03T04:27:08.698Z,0.88
2023-08-03T04:29:37.128Z,1.27
2023-08-03T04:32:07.129Z,0.70
2023-08-03T04:34:35.410Z,0.90
2023-08-03T04:37:04.029Z,1.00
2023-08-03T04:39:32.331Z,0.65
2023-08-03T04:42:00.645Z,0.90
2023-08-03T04:44:29.177Z,1.00
2023-08-03T04:46:57.548Z,0.80
2023-08-03T04:49:27.734Z,0.80
2023-08-03T04:51:56.573Z,1.02
2023-08-03T04:54:24.981Z,0.93
2023-08-03T04:56:53.969Z,0.50
2023-08-03T04:59:22.377Z,0.68
2023-08-03T05:01:50.927Z,0.50
2023-08-03T05:04:19.389Z,0.50
2023-08-03T05:06:49.205Z,0.60
2023-08-03T05:09:17.545Z,1.00
2023-08-03T05:11:46.227Z,0.50
2023-08-03T05:14:14.769Z,0.70
2023-08-03T05:16:43.110Z,0.88
2023-08-03T05:19:11.496Z,0.70
2023-08-03T05:21:39.909Z,0.45
2023-08-03T05:24:09.591Z,0.40
2023-08-03T05:26:37.902Z,0.40
2023-08-03T05:29:06.394Z,0.93
2023-08-03T05:31:34.724Z,0.68
2023-08-03T05:34:03.130Z,0.55
2023-08-03T05:36:31.425Z,0.50
2023-08-03T05:38:59.739Z,0.98
2023-08-03T05:41:29.606Z,0.70
2023-08-03T05:43:57.952Z,0.40
2023-08-03T05:46:26.290Z,0.80
2023-08-03T05:48:55.320Z,0.63
2023-08-03T05:51:27.057Z,0.50
2023-08-03T05:53:55.894Z,0.60
2023-08-03T05:56:24.622Z,0.47
2023-08-03T05:58:56.083Z,0.77
2023-08-03T06:01:25.736Z,0.88
2023-08-03T06:03:56.350Z,0.57
2023-08-03T06:06:25.052Z,1.27
2023-08-03T06:08:54.081Z,0.82
2023-08-03T06:13:55.554Z,0.88
2023-08-03T06:16:25.495Z,0.73
2023-08-03T06:18:54.662Z,0.60
2023-08-03T06:21:23.646Z,0.85
2023-08-03T06:23:52.641Z,0.50
2023-08-03T06:26:23.088Z,0.70
2023-08-03T06:28:55.644Z,0.90
2023-08-03T06:31:26.665Z,0.73
2023-08-03T06:33:55.015Z,0.70
2023-08-03T06:36:26.469Z,0.50
2023-08-03T06:38:55.309Z,1.08
2023-08-03T06:41:24.040Z,0.60
2023-08-03T06:43:52.492Z,0.60
2023-08-03T06:46:21.094Z,0.57
2023-08-03T06:48:51.668Z,0.45
2023-08-03T06:51:20.105Z,0.65
2023-08-03T06:53:52.506Z,0.70
2023-08-03T06:56:20.876Z,0.65
2023-08-03T06:58:51.301Z,0.40
2023-08-03T07:01:20.128Z,0.63
2023-08-03T07:03:48.577Z,0.60
2023-08-03T07:06:18.547Z,0.50
2023-08-03T07:08:49.602Z,0.52
2023-08-03T07:11:17.917Z,0.70
2023-08-03T07:13:46.264Z,0.63
2023-08-03T07:16:14.619Z,0.50
2023-08-03T07:18:43.154Z,0.80
2023-08-03T07:21:11.671Z,0.57
2023-08-03T07:23:41.443Z,0.88
2023-08-03T07:26:15.657Z,0.40
2023-08-03T07:28:44.096Z,1.02
2023-08-03T07:31:16.144Z,0.90
2023-08-03T07:33:45.110Z,0.50
2023-08-03T07:36:18.578Z,0.70
2023-08-03T07:38:48.448Z,0.63
2023-08-03T07:41:17.010Z,0.60
2023-08-03T07:43:46.412Z,0.70
2023-08-03T07:46:17.567Z,0.88
2023-08-03T07:48:46.289Z,0.60
2023-08-03T07:51:15.159Z,0.90
2023-08-03T07:53:43.933Z,1.38
2023-08-03T07:56:29.306Z,0.80
2023-08-03T07:58:58.063Z,0.60
2023-08-03T08:01:26.774Z,0.50
2023-08-03T08:03:55.487Z,0.52
2023-08-03T08:06:23.937Z,0.70
2023-08-03T08:08:52.875Z,0.55
2023-08-03T08:11:22.601Z,0.57
2023-08-03T08:13:50.946Z,0.70
2023-08-03T08:16:19.685Z,0.75
2023-08-03T08:18:48.108Z,0.70
2023-08-03T08:21:16.755Z,0.40
2023-08-03T08:23:45.275Z,0.40
2023-08-03T08:26:14.469Z,0.60
2023-08-03T08:29:01.237Z,0.55
2023-08-03T08:31:52.691Z,0.50
2023-08-03T08:34:20.762Z,0.50
2023-08-03T08:36:53.123Z,0.50
2023-08-03T08:39:21.522Z,0.28
2023-08-03T08:41:51.731Z,0.35
2023-08-03T08:44:21.602Z,0.40
2023-08-03T08:46:50.168Z,0.50
2023-08-03T08:54:21.811Z,0.40
2023-08-03T09:01:57.734Z,0.40
2023-08-03T09:04:34.246Z,0.57
2023-08-03T09:07:04.041Z,0.40
2023-08-03T09:09:36.312Z,1.23
2023-08-03T09:12:05.958Z,0.32
2023-08-03T09:14:51.149Z,0.32
2023-08-03T09:17:20.047Z,0.35
2023-08-03T09:25:02.060Z,0.40
2023-08-03T09:30:14.539Z,0.57
2023-08-03T09:35:20.993Z,0.40
2023-08-03T09:37:49.957Z,0.60
2023-08-03T09:40:19.228Z,0.45
2023-08-03T09:42:48.345Z,0.50
2023-08-03T09:47:52.361Z,0.30
2023-08-03T09:50:21.300Z,0.63
2023-08-03T09:52:51.996Z,0.35
2023-08-03T09:55:22.855Z,0.60
2023-08-03T09:57:57.195Z,0.60
2023-08-03T10:00:32.208Z,0.40
2023-08-03T10:03:53.506Z,0.20
2023-08-03T10:06:28.730Z,0.30
2023-08-03T10:09:15.985Z,0.30
2023-08-03T10:11:50.901Z,0.30
2023-08-03T10:14:24.042Z,0.40
2023-08-03T10:17:06.850Z,0.40
2023-08-03T10:19:41.689Z,0.30
2023-08-03T10:22:17.773Z,0.52
2023-08-03T10:25:24.722Z,0.50
2023-08-03T10:28:12.213Z,0.30
2023-08-03T10:31:02.769Z,0.30
2023-08-03T10:33:56.374Z,0.35
2023-08-03T10:37:02.820Z,0.40
2023-08-03T10:43:29.257Z,0.35
2023-08-03T10:46:12.009Z,0.20
2023-08-03T10:48:44.407Z,0.50
2023-08-03T10:51:39.570Z,0.40
2023-08-03T10:54:32.746Z,0.32
2023-08-03T10:57:14.675Z,0.50
2023-08-03T11:00:30.748Z,0.70
2023-08-03T11:03:15.128Z,0.28
2023-08-03T11:06:14.971Z,0.30
2023-08-03T11:09:02.066Z,0.60
2023-08-03T11:15:00.177Z,0.40
2023-08-03T11:17:36.420Z,0.70
2023-08-03T11:20:32.984Z,0.40
2023-08-03T11:23:03.738Z,0.60
2023-08-03T11:25:32.715Z,0.30
2023-08-03T11:28:01.175Z,0.47
2023-08-03T11:30:44.631Z,0.35
2023-08-03T11:33:19.050Z,0.60
2023-08-03T11:36:38.184Z,0.50
2023-08-03T11:39:11.850Z,0.40
2023-08-03T11:42:10.871Z,0.70
2023-08-03T12:01:00.406Z,0.50
2023-08-03T12:03:55.975Z,0.28
2023-08-03T12:09:17.208Z,0.30
2023-08-03T12:12:09.149Z,0.30
2023-08-03T12:14:45.103Z,0.32
2023-08-03T12:17:37.605Z,0.30
2023-08-03T12:23:54.318Z,0.50
2023-08-03T12:26:38.081Z,0.30
2023-08-03T12:31:40.933Z,0.40
2023-08-03T12:34:36.314Z,0.20
2023-08-03T12:37:08.859Z,0.40
2023-08-03T12:39:44.695Z,0.40
2023-08-03T12:42:22.034Z,0.40
2023-08-03T12:44:53.692Z,0.40
2023-08-03T12:47:25.528Z,0.40
2023-08-03T12:50:14.708Z,0.80
2023-08-03T12:53:16.374Z,0.30
2023-08-03T12:56:03.635Z,0.38
2023-08-03T12:58:38.647Z,0.30
2023-08-03T13:01:31.240Z,0.30
2023-08-03T13:04:09.789Z,0.30
2023-08-03T13:06:45.725Z,0.50
2023-08-03T13:09:34.869Z,0.32
2023-08-03T13:12:11.186Z,0.60
2023-08-03T13:14:45.270Z,0.35
2023-08-03T13:17:17.189Z,0.73
2023-08-03T13:19:48.978Z,0.50
2023-08-03T13:22:22.187Z,0.70
2023-08-03T13:25:01.272Z,0.30
2023-08-03T13:27:40.356Z,0.55
2023-08-03T13:30:12.720Z,0.43
2023-08-03T13:32:45.792Z,0.40
2023-08-03T13:35:14.385Z,0.30
2023-08-03T13:37:43.002Z,0.40
2023-08-03T13:40:18.958Z,0.60
2023-08-03T13:42:47.523Z,0.40
2023-08-03T13:45:15.988Z,0.60
2023-08-03T13:48:02.719Z,0.77
2023-08-03T13:50:34.614Z,0.35
2023-08-03T13:53:06.562Z,0.60
2023-08-03T13:55:36.526Z,0.50
2023-08-03T13:58:12.724Z,0.40
2023-08-03T14:00:58.269Z,0.50
2023-08-03T14:19:10.658Z,0.20
2023-08-03T14:21:53.727Z,0.28
2023-08-03T14:24:30.879Z,0.43
2023-08-03T14:27:03.673Z,0.50
2023-08-03T14:29:34.885Z,0.40
2023-08-03T14:32:04.327Z,0.30
2023-08-03T14:37:08.117Z,0.25
2023-08-03T14:39:45.517Z,0.30
2023-08-03T14:42:17.623Z,0.73
2023-08-03T14:44:51.155Z,0.60
2023-08-03T14:47:35.299Z,0.50
2023-08-03T14:53:00.458Z,0.38
2023-08-03T14:55:29.221Z,0.30
2023-08-03T14:58:02.128Z,0.60
2023-08-03T15:00:49.564Z,0.40
2023-08-03T15:03:22.175Z,0.70
2023-08-03T15:05:54.626Z,0.30
2023-08-03T15:08:26.099Z,0.98
2023-08-03T15:11:02.716Z,0.50
2023-08-03T15:13:35.806Z,1.40
2023-08-03T15:21:39.662Z,0.50
2023-08-03T15:24:12.059Z,0.77
2023-08-03T15:26:54.661Z,0.43
2023-08-03T15:35:05.292Z,0.80
2023-08-03T15:37:38.586Z,0.35
2023-08-03T15:40:15.734Z,0.32
2023-08-03T15:42:50.372Z,0.30
2023-08-03T15:45:24.911Z,0.30
2023-08-03T15:48:56.889Z,0.25
2023-08-03T15:51:18.123Z,0.30
2023-08-03T15:54:01.507Z,0.40
2023-08-03T15:56:36.995Z,0.30
2023-08-03T15:59:08.732Z,0.40
2023-08-03T16:01:49.522Z,0.43
2023-08-03T16:04:20.745Z,0.30
2023-08-03T16:06:51.845Z,0.63
2023-08-03T16:09:24.731Z,0.35
2023-08-03T16:11:55.706Z,0.40
2023-08-03T16:14:26.566Z,0.40
2023-08-03T16:17:01.970Z,0.30
2023-08-03T16:19:33.204Z,0.35
2023-08-03T16:22:03.969Z,0.40
2023-08-03T16:24:41.566Z,0.90
2023-08-03T16:27:12.537Z,0.52
2023-08-03T16:29:50.551Z,0.30
2023-08-03T16:32:26.077Z,0.30
2023-08-03T16:34:59.652Z,0.35
2023-08-03T16:37:29.585Z,0.40
2023-08-03T16:40:08.461Z,0.30
2023-08-03T16:42:39.781Z,0.38
2023-08-03T16:45:11.909Z,0.30
2023-08-03T16:47:45.185Z,0.40
2023-08-03T16:50:21.200Z,0.30
2023-08-03T16:52:55.459Z,0.40
2023-08-03T16:55:41.199Z,0.25
2023-08-03T16:58:19.110Z,0.30
2023-08-03T17:00:56.436Z,0.57
2023-08-03T17:03:28.229Z,0.40
2023-08-03T17:05:57.273Z,0.50
2023-08-03T17:08:35.621Z,0.38
2023-08-03T17:11:07.825Z,0.28
2023-08-03T17:13:54.304Z,0.40
2023-08-03T17:16:24.452Z,0.40
2023-08-03T17:18:54.441Z,0.45
2023-08-03T17:21:23.102Z,0.40
2023-08-03T17:23:56.064Z,0.50
2023-08-03T17:26:36.687Z,0.30
2023-08-03T17:29:08.658Z,0.30
2023-08-03T17:31:38.927Z,0.47
2023-08-03T17:34:09.166Z,0.40
2023-08-03T17:36:38.048Z,0.52
2023-08-03T17:39:08.474Z,0.70
2023-08-03T17:41:44.463Z,0.50
2023-08-03T17:44:16.331Z,0.50
2023-08-03T17:46:47.944Z,0.40
2023-08-03T17:49:35.308Z,0.70
2023-08-03T17:52:19.428Z,0.70
2023-08-03T17:54:47.889Z,0.30
2023-08-03T17:57:27.281Z,0.60
2023-08-03T17:59:57.324Z,0.60
2023-08-03T18:02:30.207Z,0.57
2023-08-03T18:05:04.540Z,0.50
2023-08-03T18:07:36.244Z,0.50
2023-08-03T18:10:15.409Z,0.40
2023-08-03T18:12:48.009Z,0.47
2023-08-03T18:15:19.688Z,0.40
2023-08-03T18:20:40.657Z,0.50
2023-08-03T18:23:11.546Z,0.43
2023-08-03T18:25:48.646Z,0.68
2023-08-03T18:28:20.152Z,0.60
2023-08-03T18:30:51.647Z,0.50
2023-08-03T18:33:23.428Z,0.65
2023-08-03T18:36:03.889Z,0.65
2023-08-03T18:38:36.009Z,0.60
2023-08-03T18:41:05.250Z,0.40
2023-08-03T18:43:33.955Z,0.60
2023-08-03T18:46:03.235Z,0.50
2023-08-03T18:48:31.888Z,0.60
2023-08-03T18:51:10.301Z,0.60
2023-08-03T18:53:41.934Z,0.50
2023-08-03T18:56:14.150Z,0.60
2023-08-03T18:58:47.499Z,0.50
2023-08-03T19:01:21.701Z,0.60
2023-08-03T19:03:54.686Z,0.63
2023-08-03T19:06:26.852Z,0.60
2023-08-03T19:08:55.478Z,0.80
2023-08-03T19:11:26.709Z,0.47
2023-08-03T19:13:59.268Z,0.50
2023-08-03T19:16:31.209Z,0.65
2023-08-03T19:19:09.753Z,0.90
2023-08-03T19:21:49.804Z,0.80
2023-08-03T19:24:20.528Z,0.57
2023-08-03T19:27:01.184Z,0.55
2023-08-03T19:29:34.096Z,0.50
2023-08-03T19:32:08.265Z,0.63
2023-08-03T19:34:56.896Z,0.50
2023-08-03T19:37:41.012Z,0.63
2023-08-03T19:40:12.484Z,0.80
2023-08-03T19:42:40.916Z,0.80
2023-08-03T19:45:24.381Z,0.60
2023-08-03T19:47:57.622Z,0.50
2023-08-03T19:50:28.789Z,0.80
2023-08-03T19:55:44.814Z,1.23
2023-08-03T19:58:16.575Z,0.60
2023-08-03T20:03:24.281Z,0.60
2023-08-03T20:08:27.008Z,0.68
2023-08-03T20:11:28.738Z,0.60
2023-08-03T20:14:15.145Z,0.47
2023-08-03T20:19:29.751Z,0.70
2023-08-03T20:22:01.124Z,0.40
2023-08-03T20:24:34.985Z,0.45
2023-08-03T20:27:07.380Z,0.68
2023-08-03T20:32:28.410Z,0.50
2023-08-03T20:34:57.630Z,0.73
2023-08-03T20:37:29.348Z,0.55
2023-08-03T20:40:04.130Z,0.40
2023-08-03T20:45:04.116Z,0.80
2023-08-03T20:52:40.915Z,0.45
2023-08-03T20:55:11.662Z,0.60
2023-08-03T20:57:40.117Z,0.60
2023-08-03T21:00:09.277Z,0.60
2023-08-03T21:02:38.031Z,0.50
2023-08-03T21:05:06.816Z,0.47
2023-08-03T21:07:35.457Z,0.57
2023-08-03T21:12:36.706Z,0.50
2023-08-03T21:15:05.297Z,0.50
2023-08-03T21:17:33.800Z,1.30
2023-08-03T21:20:02.333Z,1.00
2023-08-03T21:22:34.598Z,0.75
2023-08-03T21:25:02.974Z,0.65
2023-08-03T21:27:31.825Z,0.80
2023-08-03T21:30:04.956Z,0.90
2023-08-03T21:32:35.429Z,0.88
2023-08-03T21:35:04.425Z,0.50
2023-08-03T21:37:33.952Z,0.70
2023-08-03T21:40:02.539Z,0.70
2023-08-03T21:42:31.045Z,0.50
2023-08-03T21:45:01.772Z,0.57
2023-08-03T21:47:30.621Z,0.80
2023-08-03T21:49:59.575Z,0.95
2023-08-03T21:52:28.013Z,0.80
2023-08-03T21:54:56.416Z,0.50
2023-08-03T21:57:24.856Z,0.70
2023-08-03T21:59:53.922Z,0.80
2023-08-03T22:02:23.711Z,0.50
2023-08-03T22:04:52.200Z,0.82
2023-08-03T22:07:20.615Z,0.70
2023-08-03T22:09:49.187Z,0.65
2023-08-03T22:12:16.695Z,0.55
2023-08-03T22:14:45.030Z,0.77
2023-08-03T22:17:13.715Z,0.63
2023-08-03T22:19:43.402Z,0.60
2023-08-03T22:22:11.753Z,0.70
2023-08-03T22:24:40.190Z,0.88
2023-08-03T22:27:08.528Z,0.70
2023-08-03T22:29:38.382Z,0.70
2023-08-03T22:32:07.252Z,0.70
2023-08-03T22:34:35.592Z,0.70
2023-08-03T22:37:05.481Z,0.60
2023-08-03T22:39:33.818Z,0.55
2023-08-03T22:42:02.210Z,0.70
2023-08-03T22:44:30.585Z,0.82
2023-08-03T22:46:59.077Z,1.20
2023-08-03T22:49:27.666Z,0.70
2023-08-03T22:51:56.019Z,0.70
2023-08-03T22:54:25.944Z,0.70
2023-08-03T22:56:54.259Z,0.70
2023-08-03T22:59:22.692Z,0.77
2023-08-03T23:01:51.102Z,0.93
2023-08-03T23:04:19.599Z,0.90
2023-08-03T23:06:49.151Z,0.90
2023-08-03T23:09:17.458Z,0.80
2023-08-03T23:11:47.367Z,0.75
2023-08-03T23:14:15.833Z,0.98
2023-08-03T23:16:44.190Z,1.00
2023-08-03T23:19:12.532Z,1.10
2023-08-03T23:21:40.832Z,1.10
2023-08-03T23:24:09.170Z,0.90
2023-08-03T23:26:39.230Z,0.80
2023-08-03T23:29:08.925Z,0.80
2023-08-03T23:31:37.274Z,0.85
2023-08-03T23:34:05.565Z,0.95
2023-08-03T23:36:33.914Z,0.90
2023-08-03T23:39:02.305Z,0.98
2023-08-03T23:41:30.661Z,0.95
2023-08-03T23:43:58.956Z,0.88
2023-08-03T23:46:28.661Z,0.90
2023-08-03T23:48:57.103Z,0.88
2023-08-03T23:51:25.449Z,0.90
2023-08-03T23:53:53.768Z,0.90
2023-08-03T23:56:22.130Z,0.85
2023-08-03T23:58:50.445Z,1.20
